Time;durP1;ratioP1;P1;durP2;ratioP2;P2;SDS_P1;SDS_P2;PMS_P1;PMS_P2;Temp;Humidity;BMP_temperature;BMP_pressure;BME280_temperature;BME280_humidity;BME280_pressure;Samples;Min_cycle;Max_cycle;Signal;HPM_P1;HPM_P2
2023/01/24 00:01:28;;;;;;;42.60;31.20;;;5.10;99.90;;;5.07;83.70;103760.06;5093187;28;20072;-69
2023/01/24 00:03:56;;;;;;;44.73;31.53;;;5.00;99.90;;;5.24;82.74;103733.19;5074830;28;20062;-69
2023/01/24 00:06:25;;;;;;;41.63;31.10;;;5.20;99.90;;;4.97;81.99;103715.69;5092995;28;20131;-69
2023/01/24 00:08:55;;;;;;;43.63;31.37;;;5.20;99.90;;;5.03;82.22;103747.56;5077290;28;20133;-69
2023/01/24 00:11:23;;;;;;;42.20;31.70;;;5.10;99.90;;;5.19;82.23;103751.25;5078573;28;20072;-69
2023/01/24 00:13:52;;;;;;;41.00;30.07;;;5.20;99.90;;;4.96;82.78;103738.38;5095327;28;20048;-69
2023/01/24 00:16:22;;;;;;;45.13;32.23;;;5.00;99.90;;;4.67;83.71;103759.19;5096372;28;20032;-69
2023/01/24 00:18:51;;;;;;;42.90;30.55;;;4.70;99.90;;;4.78;83.97;103703.09;5078315;28;20139;-69
2023/01/24 00:21:22;;;;;;;45.77;33.03;;;4.90;99.90;;;5.08;83.42;103715.56;5096786;28;20036;-69
2023/01/24 00:23:53;;;;;;;43.93;32.43;;;5.10;99.90;;;4.88;82.49;103666.19;5096238;28;20070;-69
2023/01/24 00:26:25;;;;;;;45.40;33.33;;;5.20;99.90;;;5.43;82.05;103734.44;5096465;28;20460;-69
2023/01/24 00:28:54;;;;;;;45.60;32.43;;;5.40;99.90;;;4.79;82.62;103735.47;5096159;28;20048;-69
2023/01/24 00:31:24;;;;;;;42.07;31.27;;;5.00;99.90;;;4.32;84.58;103691.34;5078128;28;20560;-69
2023/01/24 00:33:55;;;;;;;43.37;31.43;;;4.70;99.90;;;4.63;84.94;103730.06;5096290;28;20044;-69
2023/01/24 00:36:23;;;;;;;46.70;32.47;;;4.60;99.90;;;4.80;85.26;103750.44;5094824;28;20143;-69
2023/01/24 00:38:53;;;;;;;42.50;33.07;;;4.70;99.90;;;4.91;84.71;103708.34;5095742;28;20058;-69
2023/01/24 00:41:27;;;;;;;44.67;31.70;;;4.90;99.90;;;5.22;83.78;103740.06;5077909;28;20072;-69
2023/01/24 00:43:56;;;;;;;44.95;32.40;;;5.10;99.90;;;5.26;83.89;103734.19;5077517;28;20048;-69
2023/01/24 00:46:24;;;;;;;40.43;32.13;;;5.20;99.90;;;5.57;82.95;103737.94;5096044;28;20036;-69
2023/01/24 00:48:53;;;;;;;40.23;29.83;;;5.40;99.90;;;5.55;82.50;103736.91;5077707;28;20047;-69
2023/01/24 00:51:21;;;;;;;40.80;30.50;;;5.50;99.90;;;5.06;82.04;103656.84;5077632;28;20052;-69
2023/01/24 00:53:51;;;;;;;39.92;30.13;;;5.50;99.90;;;5.07;81.79;103689.25;5094528;28;20048;-69
2023/01/24 00:56:21;;;;;;;39.57;30.10;;;5.40;99.90;;;5.50;81.76;103726.13;5095528;28;20394;-69
2023/01/24 00:58:51;;;;;;;40.00;31.67;;;5.40;99.90;;;5.24;81.90;103685.97;5095359;28;20036;-69
2023/01/24 01:01:20;;;;;;;42.53;31.10;;;5.50;99.90;;;5.25;82.57;103730.66;5077524;28;20062;-69
2023/01/24 01:03:49;;;;;;;39.77;30.40;;;5.30;99.90;;;5.37;83.21;103733.13;5095655;28;20048;-69
2023/01/24 01:06:17;;;;;;;42.23;30.97;;;5.30;99.90;;;5.42;82.60;103735.22;5095585;28;20044;-69
2023/01/24 01:08:46;;;;;;;41.10;30.80;;;5.30;99.90;;;4.66;82.80;103580.84;5095556;28;20043;-69
2023/01/24 01:11:15;;;;;;;44.30;32.20;;;5.40;99.90;;;5.31;82.19;103723.16;5095138;28;20127;-69
2023/01/24 01:13:47;;;;;;;42.88;31.50;;;5.30;99.90;;;5.40;82.33;103720.22;5077133;28;20083;-69
2023/01/24 01:16:23;;;;;;;40.83;31.17;;;5.40;99.90;;;4.45;82.44;103659.91;5077221;28;20097;-69
2023/01/24 01:18:55;;;;;;;39.57;30.20;;;5.30;99.90;;;4.27;83.91;103632.50;5076741;28;20139;-69
2023/01/24 01:21:24;;;;;;;41.70;31.83;;;4.90;99.90;;;5.05;84.76;103720.59;5076845;28;20043;-70
2023/01/24 01:23:57;;;;;;;43.30;31.17;;;4.90;99.90;;;4.88;84.10;103631.22;5094982;28;20122;-69
2023/01/24 01:26:26;;;;;;;40.53;29.90;;;5.10;99.90;;;2.61;82.91;103256.94;5077000;28;20040;-70
2023/01/24 01:28:54;;;;;;;38.40;30.33;;;5.30;99.90;;;4.05;82.74;103432.88;5076966;28;20079;-69
2023/01/24 01:31:24;;;;;;;42.13;31.37;;;5.40;99.90;;;5.34;82.59;103712.84;5095320;28;20051;-69
2023/01/24 01:33:53;;;;;;;43.08;31.73;;;5.30;99.90;;;5.03;82.28;103624.28;5094941;28;20078;-69
2023/01/24 01:36:23;;;;;;;42.97;30.73;;;5.40;99.90;;;5.58;81.02;103697.72;5076738;28;20071;-69
2023/01/24 01:38:52;;;;;;;40.25;30.17;;;5.50;99.90;;;5.72;80.80;103720.47;5094367;28;20060;-69
2023/01/24 01:41:21;;;;;;;41.83;31.35;;;5.60;99.90;;;5.73;80.04;103703.88;5094536;28;20048;-69
2023/01/24 01:46:43;;;;;;;42.43;31.23;;;5.80;99.90;;;5.77;79.36;103716.41;5093437;28;20075;-70
2023/01/24 01:49:21;;;;;;;40.03;31.33;;;5.70;99.90;;;5.90;79.06;103725.97;5094710;28;20396;-69
2023/01/24 01:51:53;;;;;;;40.80;31.03;;;5.80;99.90;;;5.59;78.40;103724.88;5094447;28;20044;-70
2023/01/24 01:54:28;;;;;;;41.23;31.47;;;5.70;99.90;;;4.98;80.98;103718.41;5076479;28;20489;-70
2023/01/24 01:57:01;;;;;;;42.00;32.33;;;5.10;99.90;;;4.77;82.13;103711.78;5076431;28;20082;-69
2023/01/24 01:59:36;;;;;;;44.87;32.77;;;4.70;99.90;;;4.49;83.26;103698.59;5094451;28;20040;-69
2023/01/24 02:02:08;;;;;;;42.37;31.13;;;4.50;99.90;;;4.72;83.27;103696.56;5094227;28;20067;-70
2023/01/24 02:04:40;;;;;;;43.67;31.77;;;4.70;99.90;;;3.51;83.64;103526.16;5094350;28;20058;-69
2023/01/24 02:07:12;;;;;;;44.70;33.73;;;4.50;99.90;;;4.61;83.85;103713.34;5093006;28;20048;-69
2023/01/24 02:09:44;;;;;;;43.77;32.40;;;4.50;99.90;;;4.33;83.61;103645.09;5075897;28;20044;-69
2023/01/24 02:12:18;;;;;;;44.77;33.57;;;4.50;99.90;;;4.82;83.31;103693.75;5094080;28;20086;-69
2023/01/24 02:17:37;;;;;;;45.37;33.60;;;5.00;99.90;;;4.98;83.39;103714.88;5094282;28;20500;-69
2023/01/24 02:20:18;;;;;;;46.97;33.80;;;4.90;99.90;;;5.15;82.71;103701.13;5094307;28;20040;-69
2023/01/24 02:22:57;;;;;;;42.33;33.30;;;5.00;99.90;;;5.10;82.36;103648.38;5094340;28;20055;-69
2023/01/24 02:25:34;;;;;;;43.10;34.00;;;5.20;99.90;;;5.18;81.12;103654.09;5094019;28;20489;-69
2023/01/24 02:28:06;;;;;;;42.73;30.50;;;5.30;99.90;;;5.52;80.44;103712.19;5076011;28;20055;-70
2023/01/24 02:30:36;;;;;;;41.03;30.97;;;5.40;99.90;;;5.67;80.01;103706.13;5075342;28;20052;-69
2023/01/24 02:33:15;;;;;;;42.67;32.97;;;5.50;99.90;;;5.28;80.08;103703.72;5076038;28;20487;-69
2023/01/24 02:35:45;;;;;;;41.80;30.47;;;5.40;99.90;;;5.04;80.49;103645.34;5092833;28;20048;-70
2023/01/24 02:38:21;;;;;;;44.08;31.13;;;5.30;99.90;;;4.90;80.22;103713.47;5075858;28;20512;-70
2023/01/24 02:40:56;;;;;;;44.63;31.40;;;5.10;99.90;;;4.48;81.85;103631.28;5076232;28;20114;-69
2023/01/24 02:43:28;;;;;;;41.73;29.80;;;4.80;99.90;;;4.23;82.47;103684.59;5076023;28;20051;-70
2023/01/24 02:45:57;;;;;;;42.67;31.17;;;4.70;99.90;;;3.97;82.44;103527.47;5092490;28;20055;-69
2023/01/24 02:48:25;;;;;;;41.27;30.63;;;4.80;99.90;;;4.73;82.01;103625.88;5075488;28;20394;-70
2023/01/24 02:53:40;;;;;;;41.37;32.33;;;5.10;99.90;;;5.05;81.20;103694.38;5075473;28;20508;-69
2023/01/24 02:59:01;;;;;;;39.90;30.67;;;4.90;99.90;;;4.81;82.46;103661.38;5075218;28;20067;-70
2023/01/24 03:01:32;;;;;;;43.07;30.40;;;4.90;99.90;;;3.92;82.08;103519.31;5075305;28;20044;-69
2023/01/24 03:04:01;;;;;;;41.60;31.30;;;4.90;99.90;;;3.16;82.05;103400.88;5075085;28;20048;-70
2023/01/24 03:06:31;;;;;;;;;;;5.00;99.90;;;4.74;81.98;103668.75;5075669;28;20093;-69
2023/01/24 03:09:00;;;;;;;42.07;30.27;;;4.90;99.90;;;4.66;82.76;103696.19;5093316;28;19935;-70
2023/01/24 03:11:36;;;;;;;39.73;29.57;;;4.70;99.90;;;4.81;82.81;103692.81;5075140;28;20440;-69
2023/01/24 03:36:31;;;;;;;39.87;29.80;;;5.50;99.90;;;2.85;79.54;103216.72;5074376;28;20390;-69
2023/01/24 03:41:47;;;;;;;38.03;30.03;;;5.30;99.90;;;5.05;81.02;103685.63;5074663;28;20456;-69
2023/01/24 03:44:15;;;;;;;41.83;30.03;;;5.00;99.90;;;5.17;80.70;103679.41;5092498;28;20040;-69
2023/01/24 03:46:47;;;;;;;41.57;31.60;;;5.10;99.90;;;4.79;80.79;103607.00;5074533;28;20093;-69
2023/01/24 03:49:16;;;;;;;38.60;30.20;;;5.20;99.90;;;4.61;79.96;103556.06;5074492;28;20048;-69
2023/01/24 03:54:31;;;;;;;41.03;31.20;;;5.40;99.90;;;4.50;79.60;103574.63;5091297;28;20520;-70
2023/01/24 03:57:03;;;;;;;39.80;30.83;;;5.20;99.90;;;5.36;79.68;103697.22;5074538;28;20447;-69
2023/01/24 03:59:33;;;;;;;39.73;31.30;;;5.30;99.90;;;5.46;79.44;103697.88;5074440;28;20489;-70
2023/01/24 04:02:03;;;;;;;40.97;31.03;;;5.40;99.90;;;5.10;79.26;103602.84;5091174;28;20040;-70
2023/01/24 04:07:22;;;;;;;40.63;31.33;;;5.50;99.90;;;5.32;78.56;103647.97;5073761;28;20052;-70
2023/01/24 04:10:02;;;;;;;41.83;31.93;;;5.50;99.90;;;5.22;78.42;103629.84;5091201;28;20155;-69
2023/01/24 04:12:36;;;;;;;41.22;31.00;;;5.50;99.90;;;5.53;78.01;103674.63;5074327;28;20094;-69
2023/01/24 04:15:07;;;;;;;41.03;31.13;;;5.60;99.90;;;5.47;77.90;103689.19;5074266;28;20389;-70
2023/01/24 04:17:37;;;;;;;41.97;32.78;;;5.50;99.90;;;5.62;77.95;103696.16;5074547;28;20047;-70
2023/01/24 04:20:11;;;;;;;40.20;31.83;;;5.60;99.90;;;5.75;77.90;103717.13;5074341;28;20055;-70
2023/01/24 04:22:40;;;;;;;41.00;31.37;;;5.70;99.90;;;5.52;77.70;103696.44;5074198;28;20524;-69
2023/01/24 04:25:10;;;;;;;44.70;32.27;;;5.60;99.90;;;5.56;78.00;103696.72;5074058;28;20241;-70
2023/01/24 04:27:42;;;;;;;43.40;33.40;;;5.50;99.90;;;4.70;79.99;103679.84;5074244;28;20519;-70
2023/01/24 04:30:15;;;;;;;42.43;32.70;;;4.90;99.90;;;4.52;80.09;103606.16;5074109;28;20048;-70
2023/01/24 04:32:50;;;;;;;47.10;34.50;;;4.90;99.90;;;4.37;81.38;103647.13;5074204;28;20048;-70
2023/01/24 04:35:26;;;;;;;42.70;32.03;;;4.70;99.90;;;4.89;81.74;103689.00;5074155;28;20056;-69
2023/01/24 04:37:59;;;;;;;45.60;33.60;;;4.80;99.90;;;4.91;81.59;103696.94;5073981;28;20072;-70
2023/01/24 04:40:41;;;;;;;46.70;33.83;;;4.80;99.90;;;4.80;81.39;103683.13;5073700;28;20048;-69
2023/01/24 04:43:10;;;;;;;46.10;33.22;;;4.80;99.90;;;4.45;82.58;103695.69;5074068;28;20048;-70
2023/01/24 04:45:40;;;;;;;;;;;4.40;99.90;;;4.70;82.90;103696.50;5074526;28;20070;-70
2023/01/24 04:48:13;;;;;;;48.93;34.83;;;4.50;99.90;;;4.36;83.85;103695.06;5074279;28;19920;-69
2023/01/24 04:50:41;;;;;;;49.40;36.10;;;4.30;99.90;;;4.49;83.59;103698.59;5074086;28;20055;-69
2023/01/24 04:53:10;;;;;;;44.90;34.33;;;4.40;99.90;;;4.82;83.62;103699.88;5074023;28;20052;-70
2023/01/24 04:55:38;;;;;;;47.57;36.30;;;4.60;99.90;;;4.71;82.42;103685.19;5077382;28;20056;-69
2023/01/24 04:58:08;;;;;;;44.03;34.30;;;4.70;99.90;;;4.01;82.58;103501.56;5077648;28;20394;-70
2023/01/24 05:00:36;;;;;;;49.63;37.17;;;5.00;99.90;;;4.81;81.77;103628.97;5095499;28;20069;-69
2023/01/24 05:03:05;;;;;;;47.53;35.83;;;5.10;99.90;;;5.26;81.56;103701.00;5077673;28;20127;-69
2023/01/24 05:05:35;;;;;;;45.53;34.20;;;5.20;99.90;;;5.12;81.24;103643.22;5077562;28;20482;-70
2023/01/24 05:08:04;;;;;;;47.30;35.08;;;5.30;99.90;;;5.13;80.43;103703.63;5094445;28;20048;-70
2023/01/24 05:10:33;;;;;;;46.53;33.85;;;5.30;99.90;;;4.64;80.61;103595.56;5077479;28;20127;-69
2023/01/24 05:13:02;;;;;;;44.97;33.50;;;5.20;99.90;;;5.44;80.27;103711.69;5077828;28;20059;-69
2023/01/24 05:15:32;;;;;;;46.87;33.77;;;5.40;99.90;;;4.42;81.66;103687.63;5077491;28;20098;-70
2023/01/24 05:18:02;;;;;;;47.00;35.15;;;4.70;99.90;;;4.66;82.62;103690.94;5077777;28;20046;-70
2023/01/24 05:20:31;;;;;;;44.77;33.57;;;4.70;99.90;;;5.08;81.91;103768.03;5094519;28;20044;-69
2023/01/24 05:23:01;;;;;;;45.73;34.83;;;4.90;99.90;;;4.97;82.20;103715.69;5076971;28;20109;-70
2023/01/24 05:25:35;;;;;;;45.70;35.70;;;4.90;99.90;;;5.23;81.38;103731.34;5077252;28;20079;-69
2023/01/24 05:28:06;;;;;;;48.60;34.30;;;5.10;99.90;;;5.29;80.71;103724.78;5077087;28;20097;-70
2023/01/24 05:30:41;;;;;;;43.47;33.70;;;5.20;99.90;;;5.05;80.71;103698.72;5076868;28;20044;-69
2023/01/24 05:33:21;;;;;;;45.92;34.58;;;5.20;99.90;;;3.82;81.94;103624.22;5077089;28;20052;-69
2023/01/24 05:35:58;;;;;;;51.10;35.88;;;4.60;99.90;;;4.40;83.32;103726.84;5077036;28;20482;-69
2023/01/24 05:38:31;;;;;;;50.73;35.97;;;4.40;99.90;;;3.91;83.54;103630.06;5093600;28;20055;-70
2023/01/24 05:41:05;;;;;;;48.75;35.42;;;4.30;99.90;;;3.56;83.15;103536.13;5094869;28;20048;-69
2023/01/24 05:43:35;;;;;;;47.03;35.20;;;4.50;99.90;;;4.88;82.46;103726.50;5076668;28;20040;-69
2023/01/24 05:46:07;;;;;;;45.08;33.85;;;4.80;99.90;;;4.39;81.94;103607.09;5093266;28;20050;-69
2023/01/24 05:48:43;;;;;;;45.37;33.87;;;4.90;99.90;;;5.25;81.49;103740.22;5076653;28;20052;-69
2023/01/24 05:51:19;;;;;;;43.63;33.77;;;5.10;99.90;;;5.04;80.92;103682.09;5076400;28;20052;-69
2023/01/24 05:53:51;;;;;;;43.73;33.67;;;5.30;99.90;;;5.25;80.12;103709.66;5076617;28;20151;-70
2023/01/24 05:56:39;;;;;;;41.22;31.83;;;5.40;99.90;;;5.28;79.77;103693.22;5083741;28;20056;-69
2023/01/24 05:59:10;;;;;;;43.70;31.90;;;5.50;99.90;;;4.81;79.24;103650.88;5076069;28;20054;-69
2023/01/24 06:01:39;;;;;;;40.73;31.13;;;5.50;99.90;;;5.29;79.17;103698.56;5076358;28;20055;-70
2023/01/24 06:04:09;;;;;;;;;;;5.50;99.90;;;5.62;78.71;103738.19;5076365;28;20047;-70
2023/01/24 06:06:39;;;;;;;42.30;31.92;;;5.60;99.90;;;4.95;78.46;103642.16;5075069;28;19920;-70
2023/01/24 06:09:10;;;;;;;41.70;31.20;;;5.60;99.90;;;5.52;78.30;103696.44;5076191;28;20044;-70
2023/01/24 06:11:39;;;;;;;39.03;30.53;;;5.60;99.90;;;5.70;78.19;103729.06;5076226;28;20409;-70
2023/01/24 06:14:13;;;;;;;41.67;31.60;;;5.60;99.90;;;5.62;77.68;103715.47;5093022;28;20055;-70
2023/01/24 06:16:44;;;;;;;42.55;32.53;;;5.70;99.90;;;5.44;77.56;103690.69;5076130;28;20052;-70
2023/01/24 06:19:16;;;;;;;39.70;30.60;;;5.70;99.90;;;5.72;77.73;103730.97;5076048;28;20550;-70
2023/01/24 06:21:47;;;;;;;39.72;29.48;;;5.70;99.90;;;5.40;77.30;103741.22;5075528;28;20044;-69
2023/01/24 06:24:24;;;;;;;39.50;30.37;;;5.60;99.90;;;5.44;77.79;103738.88;5075790;28;20560;-69
2023/01/24 06:27:14;;;;;;;39.95;30.40;;;5.40;99.90;;;5.25;78.05;103708.75;5092383;28;20044;-70
2023/01/24 06:29:43;;;;;;;40.93;30.93;;;5.40;99.90;;;5.11;78.36;103746.34;5093624;28;20040;-70
2023/01/24 06:32:27;;;;;;;42.43;30.77;;;5.30;99.90;;;4.81;80.56;103741.72;5093722;28;20118;-69
2023/01/24 06:35:10;;;;;;;43.93;32.50;;;4.80;99.90;;;4.80;79.93;103748.69;5093689;28;20040;-70
2023/01/24 06:37:47;;;;;;;40.97;31.67;;;4.80;99.90;;;4.95;80.93;103754.94;5093451;28;20059;-70
2023/01/24 06:40:23;;;;;;;41.43;30.30;;;4.80;99.90;;;4.05;82.77;103747.13;5093399;28;20161;-69
2023/01/24 06:42:53;;;;;;;42.90;31.53;;;4.20;99.90;;;4.14;83.88;103750.34;5093434;28;20044;-69
2023/01/24 06:45:22;;;;;;;44.47;31.40;;;4.10;99.90;;;3.76;84.24;103727.59;5075103;28;20056;-69
2023/01/24 06:47:51;;;;;;;46.03;33.00;;;4.00;99.90;;;4.21;84.44;103747.38;5093414;28;20485;-69
2023/01/24 06:50:23;;;;;;;45.57;32.10;;;4.10;99.90;;;4.00;84.36;103753.78;5093313;28;20039;-69
2023/01/24 06:52:52;;;;;;;41.27;31.17;;;4.10;99.90;;;4.43;84.91;103766.31;5093368;28;20402;-69
2023/01/24 06:55:22;;;;;;;46.72;32.53;;;4.20;99.90;;;4.24;85.26;103763.28;5093194;28;20043;-70
2023/01/24 06:57:55;;;;;;;44.90;32.38;;;4.20;99.90;;;4.28;84.69;103761.78;5093237;28;20387;-70
2023/01/24 07:00:24;;;;;;;43.10;31.67;;;4.20;99.90;;;4.49;84.68;103764.13;5093087;28;20660;-70
2023/01/24 07:02:59;;;;;;;44.90;32.13;;;4.40;99.90;;;4.50;84.56;103763.34;5093042;28;20076;-70
2023/01/24 07:05:28;;;;;;;43.07;32.23;;;4.40;99.90;;;4.51;84.29;103738.00;5075130;28;20378;-70
2023/01/24 07:07:56;;;;;;;46.73;34.07;;;4.50;99.90;;;4.57;83.43;103783.88;5093200;28;20043;-70
2023/01/24 07:10:27;;;;;;;44.60;32.43;;;4.60;99.90;;;3.88;85.30;103728.44;5093034;28;20056;-70
2023/01/24 07:12:55;;;;;;;46.10;32.90;;;4.10;99.90;;;3.74;85.94;103685.63;5092985;28;20116;-70
2023/01/24 07:15:24;;;;;;;44.50;32.80;;;4.10;99.90;;;4.31;85.73;103765.53;5092732;28;20459;-70
2023/01/24 07:17:53;;;;;;;46.40;32.93;;;4.20;99.90;;;3.90;85.91;103759.19;5092502;28;20056;-69
2023/01/24 07:20:23;;;;;;;44.17;32.53;;;4.00;99.90;;;4.10;86.81;103758.84;5092690;28;20048;-70
2023/01/24 07:22:52;;;;;;;44.43;32.50;;;4.10;99.90;;;3.97;86.30;103690.72;5092752;28;20105;-68
2023/01/24 07:25:22;;;;;;;47.67;32.87;;;4.20;99.90;;;4.24;85.66;103763.28;5092979;28;20032;-66
2023/01/24 07:27:53;;;;;;;46.28;32.45;;;4.20;99.90;;;4.41;85.77;103788.00;5092738;28;20131;-67
2023/01/24 07:30:24;;;;;;;;;;;4.30;99.90;;;4.41;85.50;103794.13;5093194;28;20433;-67
2023/01/24 07:32:52;;;;;;;45.93;32.53;;;4.40;99.90;;;4.31;85.41;103775.09;5075274;28;19920;-67
2023/01/24 07:35:21;;;;;;;46.03;33.00;;;4.30;99.90;;;4.48;85.69;103777.13;5092823;28;20146;-65
2023/01/24 07:37:50;;;;;;;44.57;32.37;;;4.40;99.90;;;4.59;85.61;103779.66;5092453;28;20047;-69
2023/01/24 07:40:19;;;;;;;45.87;32.23;;;4.50;99.90;;;4.86;84.64;103775.31;5092648;28;20093;-68
2023/01/24 07:42:48;;;;;;;42.73;31.90;;;4.70;99.90;;;4.79;84.11;103778.34;5074565;28;20044;-68
2023/01/24 07:45:20;;;;;;;40.57;30.83;;;4.90;99.90;;;5.03;83.48;103785.19;5074456;28;20044;-68
2023/01/24 07:47:49;;;;;;;43.37;29.57;;;5.00;99.90;;;4.46;83.26;103790.13;5093025;28;20044;-69
2023/01/24 07:50:22;;;;;;;;;;;4.70;99.90;;;4.08;85.28;103790.97;5093329;28;20367;-69
2023/01/24 07:52:52;;;;;;;44.90;32.33;;;4.20;99.90;;;4.16;85.66;103785.44;5074176;28;19925;-69
2023/01/24 07:55:22;;;;;;;46.22;32.50;;;4.10;99.90;;;3.77;86.02;103717.25;5092868;28;20055;-67
2023/01/24 07:57:51;;;;;;;43.70;32.40;;;4.10;99.90;;;4.25;85.71;103764.19;5074555;28;20051;-69
2023/01/24 08:00:22;;;;;;;46.90;32.73;;;4.30;99.90;;;3.94;85.50;103766.44;5074743;28;20052;-66
2023/01/24 08:02:51;;;;;;;47.63;32.97;;;4.20;99.90;;;3.60;87.61;103794.59;5074537;28;20185;-69
2023/01/24 08:05:19;;;;;;;49.67;33.00;;;3.80;99.90;;;3.68;88.81;103802.97;5092384;28;20078;-68
2023/01/24 08:07:48;;;;;;;44.97;32.17;;;3.70;99.90;;;3.35;88.56;103737.81;5074456;28;20400;-68
2023/01/24 08:10:17;;;;;;;47.13;32.07;;;3.60;99.90;;;2.96;89.41;103734.97;5092296;28;20040;-67
2023/01/24 08:12:45;;;;;;;50.37;34.47;;;3.40;99.90;;;3.26;90.54;103803.47;5092652;28;20040;-69
2023/01/24 08:15:14;;;;;;;47.90;33.53;;;3.30;99.90;;;3.54;90.23;103777.56;5092308;28;20089;-67
2023/01/24 08:17:44;;;;;;;49.50;35.03;;;3.50;99.90;;;3.96;89.46;103784.88;5074338;28;20094;-63
2023/01/24 08:20:13;;;;;;;44.88;33.55;;;3.90;99.90;;;4.27;88.36;103792.31;5092222;28;20042;-63
2023/01/24 08:22:42;;;;;;;46.73;33.37;;;4.20;99.90;;;4.22;87.23;103813.78;5092139;28;20068;-71
2023/01/24 08:25:25;;;;;;;51.37;33.87;;;4.20;99.90;;;4.05;88.03;103816.91;5074132;28;20154;-67
2023/01/24 08:27:55;;;;;;;45.38;32.13;;;4.00;99.90;;;3.78;88.58;103794.97;5074143;28;20044;-69
2023/01/24 08:30:23;;;;;;;45.10;32.97;;;3.80;99.90;;;3.99;88.38;103777.25;5095888;28;20083;-67
2023/01/24 08:33:02;;;;;;;44.93;32.60;;;4.10;99.90;;;4.28;87.25;103817.72;5077806;28;20105;-70
2023/01/24 08:35:31;;;;;;;47.70;33.07;;;4.20;99.90;;;3.96;88.15;103817.22;5078052;28;20054;-69
2023/01/24 08:37:59;;;;;;;49.20;35.07;;;4.00;99.90;;;3.78;88.86;103794.06;5095688;28;20439;-69
2023/01/24 08:40:28;;;;;;;56.07;35.60;;;3.90;99.90;;;3.90;88.80;103842.97;5095885;28;20097;-68
2023/01/24 08:43:05;;;;;;;48.87;34.87;;;3.90;99.90;;;3.24;88.86;103754.44;5095865;28;20044;-69
2023/01/24 08:45:34;;;;;;;48.60;35.20;;;3.60;99.90;;;3.46;89.97;103800.59;5096281;28;20048;-68
2023/01/24 08:48:07;;;;;;;50.23;34.23;;;3.50;99.90;;;3.57;89.45;103791.78;5096014;28;20051;-70
2023/01/24 08:50:36;;;;;;;48.43;35.33;;;3.70;99.90;;;4.06;89.26;103835.38;5095616;28;20044;-69
2023/01/24 08:53:04;;;;;;;49.20;35.23;;;3.90;99.90;;;4.31;88.57;103828.41;5095726;28;20044;-68
2023/01/24 08:55:33;;;;;;;50.33;34.40;;;4.10;99.90;;;4.43;87.46;103826.59;5095591;28;20235;-69
2023/01/24 08:58:03;;;;;;;49.07;34.40;;;4.30;99.90;;;3.66;87.59;103770.56;5095496;28;20036;-69
2023/01/24 09:00:32;;;;;;;48.05;34.58;;;4.00;99.90;;;3.94;88.58;103839.75;5095570;28;20064;-69
2023/01/24 09:03:01;;;;;;;45.90;34.07;;;3.90;99.90;;;4.24;88.42;103830.50;5095663;28;20071;-69
2023/01/24 09:05:31;;;;;;;44.70;32.53;;;4.10;99.90;;;4.54;87.69;103825.63;5095355;28;20043;-69
2023/01/24 09:08:00;;;;;;;48.87;34.20;;;4.40;99.90;;;4.66;86.81;103816.78;5095391;28;20378;-69
2023/01/24 09:10:29;;;;;;;50.73;35.17;;;4.60;99.90;;;4.84;86.01;103834.63;5095879;28;20040;-69
2023/01/24 09:12:57;;;;;;;48.77;34.53;;;4.70;99.90;;;4.93;85.09;103837.88;5095211;28;20048;-69
2023/01/24 09:15:26;;;;;;;46.87;33.87;;;4.90;99.90;;;5.00;84.42;103836.53;5095219;28;20115;-69
2023/01/24 09:17:54;;;;;;;44.13;32.50;;;4.90;99.90;;;5.02;83.93;103841.09;5095260;28;20048;-69
2023/01/24 09:20:22;;;;;;;47.13;33.63;;;4.90;99.90;;;4.69;83.19;103790.75;5095410;28;20067;-69
2023/01/24 09:22:52;;;;;;;46.30;32.97;;;5.00;99.90;;;4.55;83.44;103835.31;5095117;28;20044;-69
2023/01/24 09:25:21;;;;;;;47.47;34.35;;;4.70;99.90;;;4.74;83.75;103852.28;5095028;28;20095;-69
2023/01/24 09:27:54;;;;;;;50.50;34.80;;;4.60;99.90;;;4.77;83.54;103842.91;5095135;28;20040;-69
2023/01/24 09:30:23;;;;;;;48.97;34.97;;;4.80;99.90;;;4.26;83.52;103790.50;5095170;28;20550;-69
2023/01/24 09:32:53;;;;;;;47.53;34.10;;;4.70;99.90;;;4.28;84.73;103838.66;5095073;28;20159;-69
2023/01/24 09:35:21;;;;;;;53.13;36.10;;;4.40;99.90;;;3.98;85.19;103833.94;5094747;28;20508;-70
2023/01/24 09:37:53;;;;;;;52.90;35.67;;;4.20;99.90;;;4.19;85.82;103789.97;5094797;28;20075;-69
2023/01/24 09:40:28;;;;;;;49.63;36.17;;;4.40;99.90;;;4.52;85.06;103814.13;5076601;28;20378;-69
2023/01/24 09:43:07;;;;;;;52.77;36.50;;;4.60;99.90;;;4.75;84.52;103846.22;5093583;28;20093;-69
2023/01/24 09:45:42;;;;;;;52.37;36.00;;;4.80;99.90;;;4.90;84.09;103855.09;5094621;28;20044;-69
2023/01/24 09:48:15;;;;;;;52.17;36.33;;;4.90;99.90;;;4.96;83.57;103861.66;5094842;28;20043;-69
2023/01/24 09:50:49;;;;;;;49.27;35.97;;;5.00;99.90;;;5.04;83.24;103857.84;5094835;28;20203;-69
2023/01/24 09:53:22;;;;;;;51.87;34.97;;;5.00;99.90;;;4.59;82.90;103787.53;5094717;28;20075;-69
2023/01/24 09:55:51;;;;;;;49.80;34.40;;;5.00;99.90;;;4.98;82.96;103832.91;5094400;28;20097;-69
2023/01/24 09:58:30;;;;;;;50.57;35.23;;;5.10;99.90;;;5.01;82.17;103834.03;5094339;28;20115;-69
2023/01/24 10:01:01;;;;;;;52.87;35.80;;;5.20;99.90;;;4.51;82.13;103738.91;5095006;28;20062;-70
2023/01/24 10:03:33;;;;;;;49.20;35.77;;;5.20;99.90;;;4.82;81.96;103796.00;5094625;28;20146;-69
2023/01/24 10:06:09;;;;;;;47.07;33.77;;;5.20;99.90;;;4.95;81.67;103831.00;5094491;28;20040;-69
2023/01/24 10:08:46;;;;;;;51.67;35.23;;;5.20;99.90;;;4.78;81.45;103801.84;5094264;28;20081;-69
2023/01/24 10:11:26;;;;;;;51.33;35.43;;;5.20;99.90;;;5.23;81.73;103865.19;5094253;28;20217;-69
2023/01/24 10:14:33;;;;;;;50.30;35.25;;;5.20;99.90;;;5.21;81.18;103869.41;5094713;28;20106;-69
2023/01/24 10:17:39;;;;;;;54.70;37.57;;;5.10;99.90;;;5.30;81.38;103872.66;5094165;28;20556;-69
2023/01/24 10:20:29;;;;;;;47.87;34.13;;;5.20;99.90;;;5.33;81.00;103875.47;5075729;28;20089;-69
2023/01/24 10:23:07;;;;;;;47.63;34.00;;;5.20;99.90;;;5.39;81.21;103874.16;5093932;28;20135;-69
2023/01/24 10:25:52;;;;;;;46.53;33.20;;;5.40;99.90;;;4.76;81.12;103754.56;5094168;28;20493;-69
2023/01/24 10:28:26;;;;;;;49.30;33.73;;;5.30;99.90;;;5.35;80.61;103866.91;5093926;28;20051;-69
2023/01/24 10:31:04;;;;;;;47.77;34.13;;;5.30;99.90;;;5.38;80.96;103869.72;5094194;28;20105;-69
2023/01/24 10:33:39;;;;;;;49.37;34.37;;;5.30;99.90;;;5.27;80.75;103867.19;5094604;28;20123;-69
2023/01/24 10:36:13;;;;;;;49.20;34.80;;;5.30;99.90;;;4.77;80.61;103836.72;5093752;28;20044;-69
2023/01/24 10:38:43;;;;;;;51.03;35.27;;;5.10;99.90;;;5.05;81.94;103870.13;5094105;28;20059;-69
2023/01/24 10:41:21;;;;;;;45.67;33.67;;;5.00;99.90;;;5.11;81.84;103874.91;5075825;28;20052;-69
2023/01/24 10:43:58;;;;;;;50.20;34.47;;;5.00;99.90;;;5.09;81.61;103856.41;5093710;28;20115;-69
2023/01/24 10:47:16;;;;;;;51.57;35.80;;;5.10;99.90;;;5.18;81.72;103862.28;5093778;28;20424;-69
2023/01/24 10:49:53;;;;;;;50.73;34.97;;;5.10;99.90;;;3.74;81.41;103600.94;5080859;28;20055;-69
2023/01/24 10:52:23;;;;;;;49.10;33.63;;;5.10;99.90;;;4.00;80.88;103637.66;5093194;28;20070;-69
2023/01/24 10:54:53;;;;;;;49.63;34.03;;;5.20;99.90;;;5.19;80.94;103850.03;5093440;28;20071;-69
2023/01/24 10:57:37;;;;;;;48.73;34.57;;;5.20;99.90;;;5.07;81.36;103849.28;5093624;28;20046;-69
2023/01/24 11:00:19;;;;;;;51.57;34.73;;;5.10;99.90;;;5.16;81.15;103850.78;5075379;28;20085;-69
2023/01/24 11:02:50;;;;;;;45.30;32.87;;;5.10;99.90;;;5.21;81.12;103849.34;5093188;28;20040;-70
2023/01/24 11:05:22;;;;;;;51.27;35.50;;;5.10;99.90;;;5.22;81.19;103839.75;5093499;28;20447;-69
2023/01/24 11:07:54;;;;;;;47.43;33.07;;;5.20;99.90;;;5.18;81.20;103843.00;5093275;28;20098;-68
2023/01/24 11:10:26;;;;;;;49.67;34.75;;;5.20;99.90;;;5.00;80.99;103832.22;5093315;28;20064;-68
2023/01/24 11:12:59;;;;;;;49.07;34.23;;;5.10;99.90;;;5.19;81.32;103844.78;5092906;28;20039;-68
2023/01/24 11:15:30;;;;;;;49.10;34.33;;;5.10;99.90;;;5.07;80.82;103816.03;5092980;28;20458;-69